createdAt,value
2022-09-23T00:03:01.324Z,101357.31
2022-09-23T00:08:02.638Z,101364.19
2022-09-23T00:13:05.682Z,101361.63
2022-09-23T00:18:08.118Z,101341.66
2022-09-23T00:23:09.488Z,101353.84
2022-09-23T00:28:10.788Z,101351.25
2022-09-23T00:33:12.091Z,101346.06
2022-09-23T00:38:14.263Z,101346.94
2022-09-23T00:43:15.817Z,101348.75
2022-09-23T00:48:19.701Z,101350.44
2022-09-23T00:53:26.531Z,101338.34
2022-09-23T00:58:31.815Z,101315.00
2022-09-23T01:03:33.153Z,101336.63
2022-09-23T01:08:34.774Z,101338.41
2022-09-23T01:13:42.569Z,101332.38
2022-09-23T01:18:56.915Z,101328.94
2022-09-23T01:24:08.119Z,101315.88
2022-09-23T01:29:27.457Z,101321.13
2022-09-23T01:34:58.139Z,101320.28
2022-09-23T01:40:20.821Z,101266.63
2022-09-23T01:45:38.676Z,101304.75
2022-09-23T01:50:56.866Z,101303.91
2022-09-23T01:56:03.383Z,101308.19
2022-09-23T02:01:07.404Z,101303.84
2022-09-23T02:06:15.771Z,101309.88
2022-09-23T02:11:18.059Z,101298.69
2022-09-23T02:16:26.486Z,101290.88
2022-09-23T02:21:34.112Z,101289.09
2022-09-23T02:26:41.552Z,101282.22
2022-09-23T02:32:00.212Z,101288.28
2022-09-23T02:38:00.437Z,101277.00
2022-09-23T02:43:10.942Z,101277.00
2022-09-23T02:48:33.151Z,101257.97
2022-09-23T02:53:34.740Z,101260.56
2022-09-23T02:58:37.003Z,101264.03
2022-09-23T03:04:05.028Z,101260.56
2022-09-23T03:09:15.468Z,101244.09
2022-09-23T03:14:50.648Z,101251.91
2022-09-23T03:20:12.513Z,101257.00
2022-09-23T03:25:17.741Z,101246.59
2022-09-23T03:30:21.597Z,101252.63
2022-09-23T03:35:27.280Z,101257.72
2022-09-23T03:40:32.857Z,101238.56
2022-09-23T03:45:34.819Z,101227.38
2022-09-23T03:50:36.420Z,101255.03
2022-09-23T03:55:39.231Z,101251.53
2022-09-23T04:00:40.730Z,101244.63
2022-09-23T04:05:42.916Z,101239.41
2022-09-23T04:10:44.245Z,101225.59
2022-09-23T04:15:45.560Z,101226.47
2022-09-23T04:20:47.315Z,101215.22
2022-09-23T04:25:48.933Z,101213.50
2022-09-23T04:30:50.337Z,101206.59
2022-09-23T04:35:52.309Z,101202.28
2022-09-23T04:40:53.806Z,101192.84
2022-09-23T04:46:02.440Z,101191.13
2022-09-23T04:51:05.532Z,101183.44
2022-09-23T04:56:10.004Z,101183.34
2022-09-23T05:01:26.607Z,101194.50
2022-09-23T05:06:34.382Z,101192.78
2022-09-23T05:11:36.051Z,101187.50
2022-09-23T05:16:37.584Z,101187.44
2022-09-23T05:21:39.078Z,101205.56
2022-09-23T05:26:40.509Z,101208.16
2022-09-23T05:31:41.824Z,101204.69
2022-09-23T05:36:43.548Z,101214.97
2022-09-23T05:41:45.697Z,101214.97
2022-09-23T05:46:47.071Z,101195.06
2022-09-23T05:51:48.423Z,101189.00
2022-09-23T05:56:49.769Z,101199.44
2022-09-23T06:01:54.435Z,101184.72
2022-09-23T06:07:00.342Z,101215.91
2022-09-23T06:12:06.244Z,101203.06
2022-09-23T06:17:07.656Z,101208.38
2022-09-23T06:22:09.061Z,101196.31
2022-09-23T06:27:10.360Z,101198.19
2022-09-23T06:32:11.670Z,101205.22
2022-09-23T06:37:19.612Z,101200.19
2022-09-23T06:42:21.912Z,101202.03
2022-09-23T06:47:23.263Z,101194.41
2022-09-23T06:52:25.057Z,101203.16
2022-09-23T06:57:29.883Z,101210.16
2022-09-23T07:02:31.338Z,101153.19
2022-09-23T07:07:32.614Z,101207.78
2022-09-23T07:12:34.333Z,101203.50
2022-09-23T07:17:36.794Z,101215.63
2022-09-23T07:22:38.245Z,101213.94
2022-09-23T07:27:39.907Z,101200.97
2022-09-23T07:32:48.238Z,101208.69
2022-09-23T07:37:50.601Z,101200.94
2022-09-23T07:42:52.150Z,101219.06
2022-09-23T07:47:55.177Z,101220.72
2022-09-23T07:52:56.487Z,101211.22
2022-09-23T07:57:57.784Z,101203.44
2022-09-23T08:02:59.242Z,101222.44
2022-09-23T08:08:00.719Z,101223.25
2022-09-23T08:13:03.326Z,101223.25
2022-09-23T08:18:04.806Z,101228.34
2022-09-23T08:23:06.281Z,101227.41
2022-09-23T08:28:08.493Z,101224.72
2022-09-23T08:33:14.944Z,101217.78
2022-09-23T08:38:17.403Z,101216.91
2022-09-23T08:43:29.640Z,101208.06
2022-09-23T08:48:36.019Z,101201.91
2022-09-23T08:53:37.932Z,101197.59
2022-09-23T08:59:01.194Z,101198.41
2022-09-23T09:04:17.089Z,101208.72
2022-09-23T09:09:25.292Z,101195.66
2022-09-23T09:14:47.659Z,101193.06
2022-09-23T09:19:55.293Z,101195.50
2022-09-23T09:25:05.456Z,101187.56
2022-09-23T09:30:14.373Z,101196.03
2022-09-23T09:35:26.751Z,101198.47
2022-09-23T09:40:28.101Z,101192.47
2022-09-23T09:45:57.770Z,101192.34
2022-09-23T09:51:24.983Z,101186.13
2022-09-23T09:56:34.852Z,101183.34
2022-09-23T10:01:36.771Z,101165.91
2022-09-23T10:06:38.227Z,101179.56
2022-09-23T10:11:40.976Z,101177.91
2022-09-23T10:16:42.512Z,101170.03
2022-09-23T10:21:50.078Z,101163.63
2022-09-23T10:26:57.542Z,101165.19
2022-09-23T10:32:27.305Z,101174.47
2022-09-23T10:37:38.296Z,101166.41
2022-09-23T10:43:07.404Z,101170.47
2022-09-23T10:48:15.394Z,101155.81
2022-09-23T10:53:33.701Z,101154.63
2022-09-23T10:59:20.896Z,101149.25
2022-09-23T11:04:40.618Z,101141.44
2022-09-23T11:09:48.026Z,101142.16
2022-09-23T11:15:26.728Z,101154.94
2022-09-23T11:20:40.537Z,101122.78
2022-09-23T11:25:56.865Z,101128.31
2022-09-23T11:31:24.733Z,101120.25
2022-09-23T11:36:33.618Z,101123.06
2022-09-23T11:41:38.811Z,101118.59
2022-09-23T11:46:57.614Z,101096.63
2022-09-23T11:52:37.885Z,101103.38
2022-09-23T11:57:50.337Z,101109.44
2022-09-23T12:03:23.558Z,101103.88
2022-09-23T12:08:33.099Z,101100.38
2022-09-23T12:14:12.417Z,101092.47
2022-09-23T12:19:42.613Z,101088.56
2022-09-23T12:24:54.654Z,101088.41
2022-09-23T12:30:02.674Z,101078.56
2022-09-23T12:35:04.427Z,101067.41
2022-09-23T12:40:44.540Z,101081.00
2022-09-23T12:45:47.853Z,101074.75
2022-09-23T12:50:50.705Z,101068.63
2022-09-23T12:55:54.161Z,101073.75
2022-09-23T13:01:28.507Z,101071.94
2022-09-23T13:06:39.934Z,101057.94
2022-09-23T13:11:45.222Z,101064.94
2022-09-23T13:16:47.568Z,101060.88
2022-09-23T13:21:50.536Z,101056.00
2022-09-23T13:27:30.901Z,101047.19
2022-09-23T13:32:42.079Z,101050.69
2022-09-23T13:37:46.127Z,101047.06
2022-09-23T13:42:52.869Z,101040.91
2022-09-23T13:48:00.020Z,101039.91
2022-09-23T13:53:05.855Z,101038.84
2022-09-23T13:58:20.902Z,101027.44
2022-09-23T14:03:36.471Z,101025.66
2022-09-23T14:08:41.273Z,101022.94
2022-09-23T14:13:44.578Z,101015.00
2022-09-23T14:18:49.328Z,101007.91
2022-09-23T14:23:50.625Z,101009.03
2022-09-23T14:28:52.722Z,101010.91
2022-09-23T14:33:54.983Z,100997.75
2022-09-23T14:39:07.454Z,100993.59
2022-09-23T14:44:21.623Z,100996.84
2022-09-23T14:49:24.319Z,100984.09
2022-09-23T14:54:45.648Z,100979.81
2022-09-23T14:59:52.920Z,100973.50
2022-09-23T15:05:15.700Z,100973.75
2022-09-23T15:10:23.503Z,100967.50
2022-09-23T15:15:28.214Z,100952.97
2022-09-23T15:20:29.644Z,100966.91
2022-09-23T15:25:39.997Z,100970.44
2022-09-23T15:30:41.402Z,100954.91
2022-09-23T15:35:48.187Z,100955.88
2022-09-23T15:40:50.263Z,100957.53
2022-09-23T15:45:56.229Z,100967.34
2022-09-23T15:51:04.455Z,100973.59
2022-09-23T15:56:06.198Z,100952.97
2022-09-23T16:01:17.579Z,100963.50
2022-09-23T16:06:20.245Z,100949.94
2022-09-23T16:11:24.784Z,100971.75
2022-09-23T16:16:27.785Z,100963.13
2022-09-23T16:21:29.322Z,100962.53
2022-09-23T16:26:34.594Z,100962.72
2022-09-23T16:31:36.110Z,100952.38
2022-09-23T16:36:43.237Z,100940.59
2022-09-23T16:41:44.601Z,100938.91
2022-09-23T16:46:45.934Z,100951.97
2022-09-23T16:51:47.387Z,100940.88
2022-09-23T16:56:48.763Z,100948.75
2022-09-23T17:02:08.797Z,100959.41
2022-09-23T17:07:10.764Z,100957.88
2022-09-23T17:12:42.648Z,100958.03
2022-09-23T17:17:44.002Z,100953.16
2022-09-23T17:22:45.360Z,100966.16
2022-09-23T17:27:48.480Z,100969.00
2022-09-23T17:32:49.792Z,100963.00
2022-09-23T17:37:51.172Z,100959.72
2022-09-23T17:42:55.124Z,100964.09
2022-09-23T17:47:56.454Z,100946.91
2022-09-23T17:53:01.030Z,100939.81
2022-09-23T17:58:02.344Z,100933.06
2022-09-23T18:03:03.788Z,100937.41
2022-09-23T18:08:06.132Z,100932.38
2022-09-23T18:13:07.565Z,100929.22
2022-09-23T18:18:08.918Z,100927.53
2022-09-23T18:23:10.547Z,100930.00
2022-09-23T18:28:11.876Z,100911.22
2022-09-23T18:33:15.130Z,100944.28
2022-09-23T18:38:16.477Z,100940.06
2022-09-23T18:43:19.837Z,100945.22
2022-09-23T18:48:40.100Z,100932.34
2022-09-23T18:53:41.869Z,100927.19
2022-09-23T18:58:47.627Z,100927.28
2022-09-23T19:03:54.181Z,100945.56
2022-09-23T19:08:55.846Z,100949.97
2022-09-23T19:14:00.404Z,100933.72
2022-09-23T19:19:04.107Z,100952.81
2022-09-23T19:24:08.095Z,100951.06
2022-09-23T19:29:14.873Z,100951.22
2022-09-23T19:34:23.608Z,100959.88
2022-09-23T19:39:28.121Z,100960.88
2022-09-23T19:44:29.569Z,100949.72
2022-09-23T19:49:30.986Z,100955.81
2022-09-23T19:54:32.336Z,100944.59
2022-09-23T19:59:33.721Z,100941.97
2022-09-23T20:04:35.389Z,100923.81
2022-09-23T20:09:36.715Z,100931.63
2022-09-23T20:14:38.348Z,100928.97
2022-09-23T20:19:40.086Z,100925.69
2022-09-23T20:24:41.462Z,100922.13
2022-09-23T20:29:43.221Z,100928.25
2022-09-23T20:34:48.442Z,100917.84
2022-09-23T20:39:51.654Z,100930.03
2022-09-23T20:44:52.976Z,100913.63
2022-09-23T20:49:54.235Z,100882.75
2022-09-23T20:54:56.667Z,100904.13
2022-09-23T20:59:58.294Z,100904.25
2022-09-23T21:05:00.224Z,100904.13
2022-09-23T21:10:04.618Z,100903.28
2022-09-23T21:15:06.443Z,100906.00
2022-09-23T21:20:08.575Z,100898.25
2022-09-23T21:25:27.500Z,100876.66
2022-09-23T21:30:29.645Z,100885.25
2022-09-23T21:35:31.115Z,100888.81
2022-09-23T21:40:51.048Z,100884.66
2022-09-23T21:45:59.460Z,100870.03
2022-09-23T21:51:06.394Z,100893.38
2022-09-23T21:56:10.866Z,100862.41
2022-09-23T22:01:20.644Z,100896.06
2022-09-23T22:06:27.021Z,100890.88
2022-09-23T22:11:50.412Z,100895.22
2022-09-23T22:16:55.838Z,100860.97
2022-09-23T22:21:57.135Z,100900.59
2022-09-23T22:26:58.393Z,100898.03
2022-09-23T22:32:24.356Z,100904.16
2022-09-23T22:37:28.399Z,100887.69
2022-09-23T22:42:30.838Z,100872.25
2022-09-23T22:47:37.550Z,100879.16
2022-09-23T22:52:39.359Z,100892.91
2022-09-23T22:57:40.960Z,100881.63
2022-09-23T23:02:42.396Z,100873.72
2022-09-23T23:07:43.916Z,100886.66
2022-09-23T23:12:46.751Z,100904.75
2022-09-23T23:17:48.105Z,100898.66
2022-09-23T23:22:49.336Z,100894.28
2022-09-23T23:27:50.705Z,100885.53
2022-09-23T23:32:52.074Z,100881.31
2022-09-23T23:37:53.521Z,100884.72
2022-09-23T23:42:54.880Z,100877.81
2022-09-23T23:47:56.111Z,100876.06
2022-09-23T23:52:57.968Z,100864.06
2022-09-23T23:58:02.148Z,100879.53
